Terminal Aerodrome Forecast
Issued by NWS Charleston, SC

Home | Current Version | Previous Version | Text Only | Print | Product List | Glossary On
Versions: 1 2 3 4 5 6 7 8 9 10 11 12
000
FTUS42 KCHS 252336
TAFCHS
TAF
KCHS 252336Z 2600/2624 14008KT P6SM FEW040
     FM260600 14005KT P6SM FEW010 SCT025
     FM260900 15004KT P6SM SCT010 BKN025
     FM261300 16007KT P6SM SCT020 BKN040
     FM261600 17010KT P6SM SCT045=

USA.gov is the U.S. government's official web portal to all federal, state and local government web resources and services.